createdAt,value
2019-01-05T00:02:11.375Z,22.40
2019-01-05T00:04:41.797Z,26.23
2019-01-05T00:07:12.001Z,22.07
2019-01-05T00:09:58.756Z,16.30
2019-01-05T00:12:28.810Z,18.07
2019-01-05T00:15:15.471Z,21.57
2019-01-05T00:18:02.300Z,17.67
2019-01-05T00:20:32.378Z,20.63
2019-01-05T00:23:02.526Z,17.17
2019-01-05T00:25:35.348Z,17.67
2019-01-05T00:28:23.735Z,18.33
2019-01-05T00:30:54.362Z,16.83
2019-01-05T00:33:25.511Z,20.13
2019-01-05T00:36:09.375Z,29.87
2019-01-05T00:38:45.744Z,16.57
2019-01-05T00:41:32.471Z,16.43
2019-01-05T00:44:02.750Z,18.10
2019-01-05T00:46:40.171Z,17.60
2019-01-05T00:49:10.470Z,17.80
2019-01-05T00:51:53.094Z,18.37
2019-01-05T00:54:41.927Z,21.33
2019-01-05T00:57:17.645Z,41.27
2019-01-05T00:59:53.691Z,43.43
2019-01-05T01:02:32.477Z,21.73
2019-01-05T01:05:02.889Z,19.93
2019-01-05T01:07:49.623Z,16.40
2019-01-05T01:10:19.844Z,18.27
2019-01-05T01:13:06.620Z,20.40
2019-01-05T01:15:42.720Z,18.33
2019-01-05T01:18:29.326Z,18.87
2019-01-05T01:21:14.671Z,14.67
2019-01-05T01:23:45.083Z,15.83
2019-01-05T01:26:15.386Z,13.37
2019-01-05T01:29:03.763Z,14.47
2019-01-05T01:31:49.968Z,16.40
2019-01-05T01:34:26.213Z,13.97
2019-01-05T01:37:14.655Z,13.60
2019-01-05T01:39:52.043Z,14.13
2019-01-05T01:42:25.155Z,13.63
2019-01-05T01:45:01.635Z,13.03
2019-01-05T01:47:49.917Z,13.70
2019-01-05T01:50:36.138Z,13.27
2019-01-05T01:53:06.748Z,12.97
2019-01-05T01:55:55.163Z,14.13
2019-01-05T01:58:43.481Z,14.80
2019-01-05T02:01:13.781Z,13.43
2019-01-05T02:03:43.851Z,12.73
2019-01-05T02:06:19.991Z,12.60
2019-01-05T02:09:06.922Z,14.73
2019-01-05T02:11:56.260Z,13.43
2019-01-05T02:14:44.861Z,12.70
2019-01-05T02:17:16.647Z,11.93
2019-01-05T02:20:02.164Z,13.33
2019-01-05T02:23:11.760Z,16.63
2019-01-05T02:26:22.294Z,11.33
2019-01-05T02:29:04.140Z,13.80
2019-01-05T02:32:07.366Z,12.33
2019-01-05T02:34:57.822Z,12.30
2019-01-05T02:37:42.314Z,11.73
2019-01-05T02:40:30.416Z,11.70
2019-01-05T02:43:15.379Z,12.40
2019-01-05T02:45:57.587Z,14.17
2019-01-05T02:48:51.864Z,13.90
2019-01-05T02:51:53.768Z,15.93
2019-01-05T02:55:00.169Z,13.47
2019-01-05T02:57:39.428Z,33.67
2019-01-05T03:00:59.716Z,17.70
2019-01-05T03:03:51.138Z,33.33
2019-01-05T03:06:57.449Z,24.87
2019-01-05T03:09:48.518Z,20.67
2019-01-05T03:12:36.624Z,17.70
2019-01-05T03:15:30.727Z,18.30
2019-01-05T03:18:41.704Z,37.00
2019-01-05T03:21:36.227Z,50.27
2019-01-05T03:25:01.140Z,30.77
2019-01-05T03:27:55.358Z,33.13
2019-01-05T03:30:46.337Z,18.43
2019-01-05T03:33:53.371Z,13.83
2019-01-05T03:37:14.493Z,11.87
2019-01-05T03:40:02.540Z,10.63
2019-01-05T03:42:52.679Z,9.53
2019-01-05T03:46:09.031Z,11.43
2019-01-05T03:49:15.586Z,9.43
2019-01-05T03:52:26.773Z,10.07
2019-01-05T03:55:50.441Z,10.43
2019-01-05T03:58:51.298Z,8.53
2019-01-05T04:02:02.132Z,8.73
2019-01-05T04:05:05.627Z,10.50
2019-01-05T04:08:10.474Z,8.67
2019-01-05T04:11:00.159Z,8.30
2019-01-05T04:13:42.344Z,8.90
2019-01-05T04:16:44.292Z,9.10
2019-01-05T04:19:55.406Z,8.90
2019-01-05T04:22:59.398Z,11.50
2019-01-05T04:25:53.953Z,13.53
2019-01-05T04:28:42.068Z,12.17
2019-01-05T04:31:30.043Z,11.80
2019-01-05T04:34:09.325Z,10.77
2019-01-05T04:37:06.128Z,11.53
2019-01-05T04:40:00.299Z,10.27
2019-01-05T04:42:36.535Z,12.47
2019-01-05T04:45:50.977Z,21.07
2019-01-05T04:48:44.989Z,12.87
2019-01-05T04:51:35.952Z,14.10
2019-01-05T04:54:40.847Z,9.43
2019-01-05T04:58:02.370Z,8.33
2019-01-05T05:01:08.667Z,11.27
2019-01-05T05:04:10.296Z,8.40
2019-01-05T05:07:21.054Z,7.27
2019-01-05T05:10:22.790Z,9.00
2019-01-05T05:13:29.649Z,10.63
2019-01-05T05:16:13.004Z,9.00
2019-01-05T05:19:15.051Z,10.93
2019-01-05T05:22:15.999Z,10.97
2019-01-05T05:25:26.949Z,25.97
2019-01-05T05:28:01.166Z,14.07
2019-01-05T05:30:56.031Z,13.13
2019-01-05T05:33:45.446Z,19.40
2019-01-05T05:36:56.806Z,13.93
2019-01-05T05:39:55.234Z,8.63
2019-01-05T05:42:48.252Z,7.53
2019-01-05T05:45:24.117Z,7.47
2019-01-05T05:48:22.455Z,6.87
2019-01-05T05:51:33.436Z,9.40
2019-01-05T05:54:34.388Z,6.73
2019-01-05T05:57:15.819Z,7.73
2019-01-05T06:00:23.260Z,8.57
2019-01-05T06:03:11.846Z,7.43
2019-01-05T06:06:25.813Z,8.37
2019-01-05T06:09:33.274Z,11.23
2019-01-05T06:12:40.983Z,10.57
2019-01-05T06:15:26.035Z,9.43
2019-01-05T06:18:32.959Z,9.90
2019-01-05T06:21:47.151Z,9.20
2019-01-05T06:24:46.026Z,8.87
2019-01-05T06:27:46.005Z,11.20
2019-01-05T06:30:54.156Z,17.03
2019-01-05T06:33:44.549Z,22.13
2019-01-05T06:36:20.741Z,12.57
2019-01-05T06:39:05.847Z,11.33
2019-01-05T06:41:54.043Z,9.40
2019-01-05T06:44:55.031Z,9.83
2019-01-05T06:47:50.940Z,16.47
2019-01-05T06:50:46.815Z,11.70
2019-01-05T06:53:51.475Z,20.80
2019-01-05T06:56:48.871Z,11.37
2019-01-05T06:59:59.079Z,10.23
2019-01-05T07:02:58.427Z,12.20
2019-01-05T07:05:46.444Z,10.10
2019-01-05T07:09:02.828Z,33.93
2019-01-05T07:11:44.440Z,24.47
2019-01-05T07:14:30.327Z,19.27
2019-01-05T07:17:41.625Z,13.00
2019-01-05T07:20:36.035Z,16.67
2019-01-05T07:23:33.337Z,14.60
2019-01-05T07:26:34.896Z,18.33
2019-01-05T07:29:41.564Z,76.40
2019-01-05T07:32:52.007Z,44.60
2019-01-05T07:35:49.052Z,34.67
2019-01-05T07:38:47.799Z,32.70
2019-01-05T07:41:48.163Z,46.00
2019-01-05T07:44:31.586Z,35.83
2019-01-05T07:47:44.380Z,36.73
2019-01-05T07:50:23.836Z,20.10
2019-01-05T07:53:32.490Z,20.73
2019-01-05T07:56:40.023Z,21.87
2019-01-05T07:59:51.664Z,21.07
2019-01-05T08:02:46.623Z,18.47
2019-01-05T08:05:31.823Z,16.50
2019-01-05T08:08:38.857Z,15.93
2019-01-05T08:11:43.791Z,19.80
2019-01-05T08:14:45.256Z,14.93
2019-01-05T08:17:43.275Z,16.07
2019-01-05T08:20:51.161Z,17.77
2019-01-05T08:23:58.663Z,17.67
2019-01-05T08:27:07.190Z,18.60
2019-01-05T08:29:43.717Z,20.10
2019-01-05T08:32:49.149Z,21.43
2019-01-05T08:36:07.843Z,24.30
2019-01-05T08:38:51.900Z,20.90
2019-01-05T08:41:41.302Z,25.73
2019-01-05T08:44:47.377Z,21.63
2019-01-05T08:47:28.171Z,28.67
2019-01-05T08:50:24.315Z,64.60
2019-01-05T08:53:22.560Z,64.97
2019-01-05T08:55:56.557Z,57.27
2019-01-05T08:58:40.007Z,31.93
2019-01-05T09:01:50.986Z,22.80
2019-01-05T09:04:54.601Z,47.43
2019-01-05T09:08:00.474Z,73.73
2019-01-05T09:10:55.860Z,98.53
2019-01-05T09:13:36.434Z,92.77
2019-01-05T09:16:31.520Z,72.60
2019-01-05T09:19:10.335Z,66.47
2019-01-05T09:21:51.084Z,59.57
2019-01-05T09:24:40.463Z,57.70
2019-01-05T09:27:39.352Z,45.33
2019-01-05T09:30:40.546Z,27.87
2019-01-05T09:33:38.214Z,18.37
2019-01-05T09:36:26.932Z,19.27
2019-01-05T09:39:14.614Z,17.77
2019-01-05T09:42:10.160Z,18.20
2019-01-05T09:45:12.150Z,82.70
2019-01-05T09:48:01.958Z,53.37
2019-01-05T09:50:46.062Z,34.60
2019-01-05T09:53:58.655Z,21.73
2019-01-05T09:56:38.815Z,25.10
2019-01-05T09:59:30.961Z,33.17
2019-01-05T10:02:38.572Z,25.47
2019-01-05T10:05:21.721Z,26.10
2019-01-05T10:08:05.600Z,18.03
2019-01-05T10:11:11.728Z,20.83
2019-01-05T10:14:07.010Z,11.70
2019-01-05T10:16:45.250Z,14.77
2019-01-05T10:19:54.035Z,14.47
2019-01-05T10:23:00.095Z,12.90
2019-01-05T10:25:56.297Z,12.53
2019-01-05T10:28:42.971Z,15.60
2019-01-05T10:31:32.780Z,18.80
2019-01-05T10:34:22.761Z,20.03
2019-01-05T10:37:29.410Z,21.70
2019-01-05T10:43:49.928Z,33.37
2019-01-05T10:46:47.045Z,40.33
2019-01-05T10:49:42.214Z,55.80
2019-01-05T10:52:52.260Z,27.90
2019-01-05T10:56:04.163Z,32.70
2019-01-05T10:59:09.445Z,34.30
2019-01-05T11:02:03.064Z,24.37
2019-01-05T11:05:18.473Z,28.13
2019-01-05T11:08:04.035Z,45.20
2019-01-05T11:10:56.701Z,32.30
2019-01-05T11:13:50.530Z,70.60
2019-01-05T11:16:37.231Z,49.20
2019-01-05T11:19:30.847Z,66.07
2019-01-05T11:22:19.920Z,48.03
2019-01-05T11:25:04.444Z,51.37
2019-01-05T11:27:48.864Z,53.13
2019-01-05T11:30:46.956Z,101.53
2019-01-05T11:33:51.635Z,63.53
2019-01-05T11:36:50.017Z,56.33
2019-01-05T11:39:24.585Z,58.00
2019-01-05T11:42:31.809Z,137.23
2019-01-05T11:45:47.812Z,57.23
2019-01-05T11:48:43.032Z,56.07
2019-01-05T11:51:17.689Z,83.80
2019-01-05T11:53:50.066Z,51.93
2019-01-05T11:56:31.079Z,48.40
2019-01-05T11:59:34.529Z,42.37
2019-01-05T12:02:37.830Z,47.90
2019-01-05T12:05:38.868Z,57.53
2019-01-05T12:08:42.980Z,62.30
2019-01-05T12:12:00.925Z,43.93
2019-01-05T12:15:03.283Z,35.87
2019-01-05T12:18:03.725Z,59.37
2019-01-05T12:21:10.284Z,63.67
2019-01-05T12:24:06.184Z,62.07
2019-01-05T12:27:16.617Z,45.30
2019-01-05T12:30:17.049Z,39.80
2019-01-05T12:33:05.021Z,137.20
2019-01-05T12:36:17.522Z,70.07
2019-01-05T12:39:40.401Z,45.03
2019-01-05T12:42:57.408Z,91.87
2019-01-05T12:45:45.885Z,49.23
2019-01-05T12:48:43.449Z,62.03
2019-01-05T12:51:41.420Z,55.47
2019-01-05T12:54:43.486Z,65.37
2019-01-05T12:58:06.031Z,97.10
2019-01-05T13:01:02.561Z,57.83
2019-01-05T13:03:54.905Z,69.00
2019-01-05T13:07:14.907Z,71.43
2019-01-05T13:10:19.951Z,57.30
2019-01-05T13:13:09.024Z,32.70
2019-01-05T13:15:49.852Z,39.50
2019-01-05T13:18:38.345Z,44.50
2019-01-05T13:21:38.920Z,53.37
2019-01-05T13:24:47.168Z,61.83
2019-01-05T13:27:21.460Z,53.73
2019-01-05T13:30:27.756Z,28.53
2019-01-05T13:33:34.013Z,37.57
2019-01-05T13:36:05.413Z,34.60
2019-01-05T13:39:18.165Z,83.40
2019-01-05T13:42:07.764Z,66.87
2019-01-05T13:45:08.815Z,55.30
2019-01-05T13:48:14.328Z,70.67
2019-01-05T13:50:55.144Z,92.63
2019-01-05T13:53:43.852Z,69.57
2019-01-05T13:56:33.511Z,81.53
2019-01-05T13:59:22.032Z,112.67
2019-01-05T14:02:10.421Z,63.70
2019-01-05T14:04:40.477Z,55.60
2019-01-05T14:07:14.245Z,54.57
2019-01-05T14:09:59.566Z,83.97
2019-01-05T14:12:49.566Z,100.10
2019-01-05T14:15:29.799Z,261.17
2019-01-05T14:18:13.297Z,138.87
2019-01-05T14:20:55.466Z,72.40
2019-01-05T14:23:29.705Z,62.20
2019-01-05T14:26:05.968Z,56.53
2019-01-05T14:28:48.198Z,48.57
2019-01-05T14:31:18.552Z,57.93
2019-01-05T14:33:55.301Z,61.93
2019-01-05T14:36:26.514Z,122.23
2019-01-05T14:39:13.436Z,69.50
2019-01-05T14:41:56.649Z,122.20
2019-01-05T14:44:35.954Z,132.20
2019-01-05T14:47:12.459Z,133.00
2019-01-05T14:49:49.736Z,71.73
2019-01-05T14:52:19.700Z,53.33
2019-01-05T14:55:06.156Z,78.17
2019-01-05T14:57:39.297Z,98.37
2019-01-05T15:00:17.813Z,161.93
2019-01-05T15:02:51.601Z,182.67
2019-01-05T15:05:37.524Z,287.47
2019-01-05T15:08:23.307Z,397.53
2019-01-05T15:10:53.660Z,162.17
2019-01-05T15:13:26.725Z,206.33
2019-01-05T15:16:03.379Z,93.77
2019-01-05T15:18:43.430Z,137.03
2019-01-05T15:21:23.243Z,302.73
2019-01-05T15:23:53.299Z,204.33
2019-01-05T15:26:30.963Z,59.67
2019-01-05T15:29:11.409Z,68.63
2019-01-05T15:31:45.496Z,46.17
2019-01-05T15:34:32.735Z,46.70
2019-01-05T15:37:20.079Z,67.60
2019-01-05T15:40:06.688Z,74.43
2019-01-05T15:42:54.605Z,95.97
2019-01-05T15:45:37.469Z,58.40
2019-01-05T15:48:24.648Z,64.53
2019-01-05T15:51:12.664Z,69.70
2019-01-05T15:53:52.014Z,72.50
2019-01-05T15:56:42.832Z,142.83
2019-01-05T15:59:19.874Z,171.17
2019-01-05T16:01:54.292Z,35.03
2019-01-05T16:04:41.462Z,51.20
2019-01-05T16:07:22.216Z,28.30
2019-01-05T16:09:59.025Z,32.10
2019-01-05T16:12:49.860Z,44.10
2019-01-05T16:15:21.205Z,24.00
2019-01-05T16:18:08.498Z,48.20
2019-01-05T16:20:58.902Z,40.03
2019-01-05T16:23:47.139Z,29.33
2019-01-05T16:26:37.742Z,17.33
2019-01-05T16:29:15.570Z,50.00
2019-01-05T16:31:54.040Z,103.87
2019-01-05T16:34:41.984Z,47.97
2019-01-05T16:37:24.582Z,100.03
2019-01-05T16:40:13.201Z,84.00
2019-01-05T16:42:53.131Z,49.97
2019-01-05T16:45:26.767Z,72.90
2019-01-05T16:48:02.306Z,76.73
2019-01-05T16:50:36.231Z,23.33
2019-01-05T16:53:25.754Z,40.47
2019-01-05T16:56:11.103Z,34.93
2019-01-05T16:58:57.018Z,34.57
2019-01-05T17:01:34.713Z,84.53
2019-01-05T17:04:11.066Z,71.27
2019-01-05T17:06:53.077Z,70.77
2019-01-05T17:09:26.873Z,54.73
2019-01-05T17:12:13.309Z,33.53
2019-01-05T17:14:43.390Z,35.50
2019-01-05T17:17:26.557Z,13.83
2019-01-05T17:20:01.983Z,23.17
2019-01-05T17:22:52.955Z,36.33
2019-01-05T17:25:46.025Z,34.63
2019-01-05T17:28:21.662Z,27.00
2019-01-05T17:31:07.146Z,28.57
2019-01-05T17:33:45.886Z,110.93
2019-01-05T17:36:24.234Z,47.70
2019-01-05T17:39:16.783Z,51.00
2019-01-05T17:41:50.719Z,45.43
2019-01-05T17:44:21.168Z,70.90
2019-01-05T17:46:51.167Z,68.27
2019-01-05T17:49:36.321Z,47.93
2019-01-05T17:52:15.674Z,84.17
2019-01-05T17:54:55.028Z,44.53
2019-01-05T17:57:43.317Z,55.63
2019-01-05T18:00:32.106Z,44.43
2019-01-05T18:03:20.512Z,40.93
2019-01-05T18:05:50.735Z,69.17
2019-01-05T18:08:23.745Z,72.93
2019-01-05T18:11:10.492Z,69.40
2019-01-05T18:13:43.477Z,28.27
2019-01-05T18:16:32.004Z,64.57
2019-01-05T18:19:11.145Z,48.13
2019-01-05T18:21:53.461Z,31.83
2019-01-05T18:24:24.643Z,20.13
2019-01-05T18:26:54.763Z,39.10
2019-01-05T18:29:40.902Z,46.53
2019-01-05T18:32:14.064Z,35.13
2019-01-05T18:35:01.235Z,56.90
2019-01-05T18:37:47.942Z,61.77
2019-01-05T18:40:19.101Z,47.23
2019-01-05T18:42:52.378Z,42.13
2019-01-05T18:45:35.056Z,32.00
2019-01-05T18:48:11.200Z,46.30
2019-01-05T18:50:41.362Z,54.17
2019-01-05T18:53:14.923Z,67.57
2019-01-05T18:55:44.964Z,239.10
2019-01-05T18:58:33.585Z,198.87
2019-01-05T19:01:21.077Z,119.80
2019-01-05T19:03:54.548Z,56.63
2019-01-05T19:06:24.610Z,46.03
2019-01-05T19:09:07.163Z,63.93
2019-01-05T19:11:37.425Z,93.10
2019-01-05T19:14:19.857Z,53.90
2019-01-05T19:17:10.713Z,45.17
2019-01-05T19:19:53.219Z,77.27
2019-01-05T19:22:41.258Z,89.77
2019-01-05T19:25:28.011Z,127.23
2019-01-05T19:28:01.556Z,136.80
2019-01-05T19:30:47.034Z,98.80
2019-01-05T19:33:33.357Z,123.17
2019-01-05T19:36:12.686Z,167.77
2019-01-05T19:38:48.892Z,81.00
2019-01-05T19:41:18.937Z,127.33
2019-01-05T19:44:01.571Z,103.03
2019-01-05T19:46:31.615Z,92.80
2019-01-05T19:49:07.362Z,82.17
2019-01-05T19:51:37.729Z,50.80
2019-01-05T19:54:08.225Z,40.43
2019-01-05T19:56:48.519Z,39.13
2019-01-05T19:59:38.417Z,45.53
2019-01-05T20:02:14.688Z,43.07
2019-01-05T20:04:45.558Z,68.17
2019-01-05T20:07:16.189Z,227.50
2019-01-05T20:09:46.363Z,242.00
2019-01-05T20:12:25.719Z,111.43
2019-01-05T20:14:58.761Z,159.17
2019-01-05T20:17:29.111Z,43.03
2019-01-05T20:20:05.219Z,190.00
2019-01-05T20:22:38.333Z,63.97
2019-01-05T20:25:08.368Z,108.47
2019-01-05T20:27:48.729Z,79.27
2019-01-05T20:30:21.848Z,43.23
2019-01-05T20:32:51.956Z,58.53
2019-01-05T20:35:28.645Z,69.00
2019-01-05T20:38:15.294Z,18.93
2019-01-05T20:40:48.485Z,39.07
2019-01-05T20:43:34.783Z,55.60
2019-01-05T20:46:04.836Z,61.67
2019-01-05T20:48:50.731Z,35.87
2019-01-05T20:51:37.695Z,50.57
2019-01-05T20:54:10.430Z,25.50
2019-01-05T20:56:57.307Z,45.23
2019-01-05T20:59:27.383Z,40.73
2019-01-05T21:02:00.712Z,112.83
2019-01-05T21:04:47.356Z,77.10
2019-01-05T21:07:18.320Z,109.97
2019-01-05T21:09:57.817Z,54.87
2019-01-05T21:12:44.129Z,64.33
2019-01-05T21:15:14.451Z,54.23
2019-01-05T21:17:53.687Z,44.13
2019-01-05T21:20:42.009Z,47.90
2019-01-05T21:23:20.941Z,45.27
2019-01-05T21:25:59.986Z,107.07
2019-01-05T21:28:34.139Z,146.13
2019-01-05T21:31:10.363Z,45.97
2019-01-05T21:33:56.814Z,53.07
2019-01-05T21:36:45.356Z,166.63
2019-01-05T21:39:27.973Z,62.50
2019-01-05T21:42:00.762Z,167.53
2019-01-05T21:44:47.105Z,59.13
2019-01-05T21:47:33.299Z,100.50
2019-01-05T21:50:03.803Z,76.63
2019-01-05T21:52:50.215Z,74.43
2019-01-05T21:55:35.184Z,30.47
2019-01-05T21:58:17.651Z,37.87
2019-01-05T22:00:50.684Z,35.80
2019-01-05T22:03:37.014Z,51.13
2019-01-05T22:06:13.394Z,51.50
2019-01-05T22:08:55.184Z,25.63
2019-01-05T22:11:28.385Z,34.07
2019-01-05T22:14:04.393Z,114.90
2019-01-05T22:16:34.896Z,240.00
2019-01-05T22:19:17.008Z,107.93
2019-01-05T22:21:47.285Z,42.07
2019-01-05T22:24:20.200Z,33.33
2019-01-05T22:26:54.081Z,35.07
2019-01-05T22:29:34.093Z,35.00
2019-01-05T22:32:16.499Z,20.87
2019-01-05T22:35:02.721Z,14.10
2019-01-05T22:37:51.080Z,93.03
2019-01-05T22:40:37.424Z,32.87
2019-01-05T22:43:19.347Z,28.20
2019-01-05T22:46:06.437Z,26.50
2019-01-05T22:48:54.231Z,49.27
2019-01-05T22:51:30.265Z,56.10
2019-01-05T22:54:18.383Z,16.57
2019-01-05T22:56:54.419Z,25.13
2019-01-05T22:59:30.885Z,22.07
2019-01-05T23:02:00.960Z,27.20
2019-01-05T23:04:47.523Z,36.10
2019-01-05T23:07:26.648Z,33.77
2019-01-05T23:10:15.130Z,15.77
2019-01-05T23:12:51.147Z,10.73
2019-01-05T23:15:24.480Z,12.20
2019-01-05T23:18:12.526Z,38.43
2019-01-05T23:20:59.313Z,27.43
2019-01-05T23:23:38.210Z,26.10
2019-01-05T23:26:17.339Z,257.23
2019-01-05T23:29:02.363Z,252.53
2019-01-05T23:31:45.151Z,38.13
2019-01-05T23:34:15.228Z,22.87
2019-01-05T23:37:01.568Z,33.20
2019-01-05T23:39:46.863Z,23.67
2019-01-05T23:42:16.951Z,32.30
2019-01-05T23:45:03.273Z,30.93
2019-01-05T23:47:39.450Z,31.63
2019-01-05T23:50:13.257Z,20.93
2019-01-05T23:52:45.973Z,23.83
2019-01-05T23:55:32.886Z,23.40
2019-01-05T23:58:42.259Z,18.90
